sensor_id;sensor_type;location;lat;lon;timestamp;P1;durP1;ratioP1;P2;durP2;ratioP2
63095;SDS011;49184;55.596;37.770;2023-01-09T00:01:56;50.08;;;17.73;;
63095;SDS011;49184;55.596;37.770;2023-01-09T00:04:22;42.85;;;18.75;;
63095;SDS011;49184;55.596;37.770;2023-01-09T00:06:48;46.58;;;19.05;;
63095;SDS011;49184;55.596;37.770;2023-01-09T00:09:19;46.58;;;17.73;;
63095;SDS011;49184;55.596;37.770;2023-01-09T00:11:46;46.67;;;18.27;;
63095;SDS011;49184;55.596;37.770;2023-01-09T00:14:13;47.40;;;16.67;;
63095;SDS011;49184;55.596;37.770;2023-01-09T00:16:40;48.35;;;18.80;;
63095;SDS011;49184;55.596;37.770;2023-01-09T00:19:06;45.25;;;18.55;;
63095;SDS011;49184;55.596;37.770;2023-01-09T00:21:32;48.33;;;17.67;;
63095;SDS011;49184;55.596;37.770;2023-01-09T00:23:58;50.92;;;18.35;;
63095;SDS011;49184;55.596;37.770;2023-01-09T00:26:24;42.50;;;17.05;;
63095;SDS011;49184;55.596;37.770;2023-01-09T00:28:50;43.13;;;17.90;;
63095;SDS011;49184;55.596;37.770;2023-01-09T00:31:17;42.33;;;18.10;;
63095;SDS011;49184;55.596;37.770;2023-01-09T00:33:44;44.63;;;17.77;;
63095;SDS011;49184;55.596;37.770;2023-01-09T00:36:14;39.65;;;17.02;;
63095;SDS011;49184;55.596;37.770;2023-01-09T00:38:40;58.05;;;18.63;;
63095;SDS011;49184;55.596;37.770;2023-01-09T00:41:07;44.80;;;16.70;;
63095;SDS011;49184;55.596;37.770;2023-01-09T00:43:39;45.88;;;17.73;;
63095;SDS011;49184;55.596;37.770;2023-01-09T00:46:11;39.83;;;16.55;;
63095;SDS011;49184;55.596;37.770;2023-01-09T00:48:38;45.88;;;17.80;;
63095;SDS011;49184;55.596;37.770;2023-01-09T00:51:06;42.17;;;16.48;;
63095;SDS011;49184;55.596;37.770;2023-01-09T00:53:33;46.40;;;18.43;;
63095;SDS011;49184;55.596;37.770;2023-01-09T00:56:02;44.88;;;18.23;;
63095;SDS011;49184;55.596;37.770;2023-01-09T00:58:31;44.92;;;16.23;;
63095;SDS011;49184;55.596;37.770;2023-01-09T01:00:58;49.05;;;16.83;;
63095;SDS011;49184;55.596;37.770;2023-01-09T01:03:25;39.83;;;14.93;;
63095;SDS011;49184;55.596;37.770;2023-01-09T01:05:52;33.53;;;12.68;;
63095;SDS011;49184;55.596;37.770;2023-01-09T01:08:36;32.10;;;12.13;;
63095;SDS011;49184;55.596;37.770;2023-01-09T01:11:03;33.63;;;13.02;;
63095;SDS011;49184;55.596;37.770;2023-01-09T01:13:30;34.20;;;11.98;;
63095;SDS011;49184;55.596;37.770;2023-01-09T01:15:56;33.95;;;12.27;;
63095;SDS011;49184;55.596;37.770;2023-01-09T01:18:22;28.27;;;11.05;;
63095;SDS011;49184;55.596;37.770;2023-01-09T01:20:48;23.65;;;10.65;;
63095;SDS011;49184;55.596;37.770;2023-01-09T01:23:14;35.00;;;10.68;;
63095;SDS011;49184;55.596;37.770;2023-01-09T01:25:40;28.58;;;11.40;;
63095;SDS011;49184;55.596;37.770;2023-01-09T01:28:07;28.23;;;10.98;;
63095;SDS011;49184;55.596;37.770;2023-01-09T01:30:37;33.60;;;12.20;;
63095;SDS011;49184;55.596;37.770;2023-01-09T01:33:05;22.58;;;10.57;;
63095;SDS011;49184;55.596;37.770;2023-01-09T01:35:32;26.17;;;10.15;;
63095;SDS011;49184;55.596;37.770;2023-01-09T01:37:58;25.42;;;11.50;;
63095;SDS011;49184;55.596;37.770;2023-01-09T01:40:24;31.77;;;11.30;;
63095;SDS011;49184;55.596;37.770;2023-01-09T01:42:52;27.63;;;11.38;;
63095;SDS011;49184;55.596;37.770;2023-01-09T01:45:23;30.60;;;11.38;;
63095;SDS011;49184;55.596;37.770;2023-01-09T01:48:04;28.08;;;10.70;;
63095;SDS011;49184;55.596;37.770;2023-01-09T01:50:38;28.60;;;10.98;;
63095;SDS011;49184;55.596;37.770;2023-01-09T01:55:49;30.02;;;11.65;;
63095;SDS011;49184;55.596;37.770;2023-01-09T01:58:18;27.85;;;10.70;;
63095;SDS011;49184;55.596;37.770;2023-01-09T02:00:46;28.73;;;11.52;;
63095;SDS011;49184;55.596;37.770;2023-01-09T02:03:14;30.02;;;11.43;;
63095;SDS011;49184;55.596;37.770;2023-01-09T02:05:43;26.33;;;11.05;;
63095;SDS011;49184;55.596;37.770;2023-01-09T02:08:10;24.35;;;9.98;;
63095;SDS011;49184;55.596;37.770;2023-01-09T02:10:37;28.20;;;9.82;;
63095;SDS011;49184;55.596;37.770;2023-01-09T02:15:56;25.20;;;10.43;;
63095;SDS011;49184;55.596;37.770;2023-01-09T02:18:20;26.30;;;9.85;;
63095;SDS011;49184;55.596;37.770;2023-01-09T02:31:45;30.30;;;10.45;;
63095;SDS011;49184;55.596;37.770;2023-01-09T02:34:38;26.52;;;9.77;;
63095;SDS011;49184;55.596;37.770;2023-01-09T02:39:53;27.75;;;11.05;;
63095;SDS011;49184;55.596;37.770;2023-01-09T02:42:29;28.60;;;10.45;;
63095;SDS011;49184;55.596;37.770;2023-01-09T02:44:58;22.83;;;9.00;;
63095;SDS011;49184;55.596;37.770;2023-01-09T02:49:54;36.38;;;11.25;;
63095;SDS011;49184;55.596;37.770;2023-01-09T02:57:55;29.63;;;11.50;;
63095;SDS011;49184;55.596;37.770;2023-01-09T03:00:54;31.15;;;10.50;;
63095;SDS011;49184;55.596;37.770;2023-01-09T03:03:39;33.17;;;10.20;;
63095;SDS011;49184;55.596;37.770;2023-01-09T03:09:11;28.55;;;9.85;;
63095;SDS011;49184;55.596;37.770;2023-01-09T03:11:44;31.83;;;10.05;;
63095;SDS011;49184;55.596;37.770;2023-01-09T03:14:22;26.15;;;9.85;;
63095;SDS011;49184;55.596;37.770;2023-01-09T03:16:51;28.88;;;9.52;;
63095;SDS011;49184;55.596;37.770;2023-01-09T03:19:23;30.83;;;10.43;;
63095;SDS011;49184;55.596;37.770;2023-01-09T03:21:54;24.25;;;8.98;;
63095;SDS011;49184;55.596;37.770;2023-01-09T03:24:21;34.10;;;10.55;;
63095;SDS011;49184;55.596;37.770;2023-01-09T03:26:47;29.30;;;9.98;;
63095;SDS011;49184;55.596;37.770;2023-01-09T03:29:13;28.70;;;9.80;;
63095;SDS011;49184;55.596;37.770;2023-01-09T03:31:39;29.73;;;9.85;;
63095;SDS011;49184;55.596;37.770;2023-01-09T03:34:05;28.08;;;9.50;;
63095;SDS011;49184;55.596;37.770;2023-01-09T03:36:31;28.88;;;10.48;;
63095;SDS011;49184;55.596;37.770;2023-01-09T03:38:57;24.52;;;7.95;;
63095;SDS011;49184;55.596;37.770;2023-01-09T03:41:23;27.90;;;7.88;;
63095;SDS011;49184;55.596;37.770;2023-01-09T03:43:49;24.45;;;10.32;;
63095;SDS011;49184;55.596;37.770;2023-01-09T03:46:15;23.42;;;8.90;;
63095;SDS011;49184;55.596;37.770;2023-01-09T03:48:41;30.02;;;9.65;;
63095;SDS011;49184;55.596;37.770;2023-01-09T03:51:07;23.30;;;9.00;;
63095;SDS011;49184;55.596;37.770;2023-01-09T03:53:33;21.98;;;8.70;;
63095;SDS011;49184;55.596;37.770;2023-01-09T03:55:59;23.90;;;9.25;;
63095;SDS011;49184;55.596;37.770;2023-01-09T03:58:25;28.67;;;9.02;;
63095;SDS011;49184;55.596;37.770;2023-01-09T04:00:56;24.13;;;8.05;;
63095;SDS011;49184;55.596;37.770;2023-01-09T04:03:23;19.60;;;7.20;;
63095;SDS011;49184;55.596;37.770;2023-01-09T04:05:49;21.50;;;8.43;;
63095;SDS011;49184;55.596;37.770;2023-01-09T04:08:15;20.63;;;7.82;;
63095;SDS011;49184;55.596;37.770;2023-01-09T04:10:44;19.77;;;8.57;;
63095;SDS011;49184;55.596;37.770;2023-01-09T04:13:11;25.20;;;9.43;;
63095;SDS011;49184;55.596;37.770;2023-01-09T04:15:37;23.50;;;8.60;;
63095;SDS011;49184;55.596;37.770;2023-01-09T04:18:03;21.38;;;8.52;;
63095;SDS011;49184;55.596;37.770;2023-01-09T04:20:30;28.27;;;7.93;;
63095;SDS011;49184;55.596;37.770;2023-01-09T04:22:56;28.02;;;9.15;;
63095;SDS011;49184;55.596;37.770;2023-01-09T04:25:24;24.42;;;8.60;;
63095;SDS011;49184;55.596;37.770;2023-01-09T04:27:51;22.17;;;9.45;;
63095;SDS011;49184;55.596;37.770;2023-01-09T04:30:17;23.63;;;9.80;;
63095;SDS011;49184;55.596;37.770;2023-01-09T04:32:44;21.75;;;10.15;;
63095;SDS011;49184;55.596;37.770;2023-01-09T04:35:10;28.35;;;9.32;;
63095;SDS011;49184;55.596;37.770;2023-01-09T04:37:36;22.85;;;9.27;;
63095;SDS011;49184;55.596;37.770;2023-01-09T04:40:02;34.85;;;10.05;;
63095;SDS011;49184;55.596;37.770;2023-01-09T04:42:33;27.50;;;9.38;;
63095;SDS011;49184;55.596;37.770;2023-01-09T04:44:59;25.67;;;9.02;;
63095;SDS011;49184;55.596;37.770;2023-01-09T04:47:25;24.15;;;9.23;;
63095;SDS011;49184;55.596;37.770;2023-01-09T04:49:51;26.90;;;8.73;;
63095;SDS011;49184;55.596;37.770;2023-01-09T04:52:17;27.77;;;8.37;;
63095;SDS011;49184;55.596;37.770;2023-01-09T04:54:43;23.10;;;7.93;;
63095;SDS011;49184;55.596;37.770;2023-01-09T04:57:09;25.27;;;8.90;;
63095;SDS011;49184;55.596;37.770;2023-01-09T04:59:35;23.48;;;8.23;;
63095;SDS011;49184;55.596;37.770;2023-01-09T05:02:01;32.00;;;8.40;;
63095;SDS011;49184;55.596;37.770;2023-01-09T05:04:27;26.98;;;8.70;;
63095;SDS011;49184;55.596;37.770;2023-01-09T05:06:53;21.58;;;8.32;;
63095;SDS011;49184;55.596;37.770;2023-01-09T05:09:19;25.25;;;8.73;;
63095;SDS011;49184;55.596;37.770;2023-01-09T05:11:46;26.42;;;8.88;;
63095;SDS011;49184;55.596;37.770;2023-01-09T05:14:12;26.90;;;9.88;;
63095;SDS011;49184;55.596;37.770;2023-01-09T05:16:38;21.35;;;9.02;;
63095;SDS011;49184;55.596;37.770;2023-01-09T05:19:07;24.40;;;9.82;;
63095;SDS011;49184;55.596;37.770;2023-01-09T05:21:33;26.52;;;8.70;;
63095;SDS011;49184;55.596;37.770;2023-01-09T05:23:59;23.75;;;9.45;;
63095;SDS011;49184;55.596;37.770;2023-01-09T05:26:25;24.98;;;9.27;;
63095;SDS011;49184;55.596;37.770;2023-01-09T05:28:51;26.88;;;8.73;;
63095;SDS011;49184;55.596;37.770;2023-01-09T05:31:19;25.27;;;9.25;;
63095;SDS011;49184;55.596;37.770;2023-01-09T05:33:45;20.70;;;8.50;;
63095;SDS011;49184;55.596;37.770;2023-01-09T05:36:11;21.80;;;8.50;;
63095;SDS011;49184;55.596;37.770;2023-01-09T05:38:37;31.25;;;8.68;;
63095;SDS011;49184;55.596;37.770;2023-01-09T05:41:03;24.65;;;8.48;;
63095;SDS011;49184;55.596;37.770;2023-01-09T05:43:29;20.50;;;8.70;;
63095;SDS011;49184;55.596;37.770;2023-01-09T05:45:55;26.27;;;9.50;;
63095;SDS011;49184;55.596;37.770;2023-01-09T05:48:21;30.33;;;9.77;;
63095;SDS011;49184;55.596;37.770;2023-01-09T05:50:47;30.35;;;9.75;;
63095;SDS011;49184;55.596;37.770;2023-01-09T05:53:13;26.63;;;9.73;;
63095;SDS011;49184;55.596;37.770;2023-01-09T05:55:39;30.58;;;11.23;;
63095;SDS011;49184;55.596;37.770;2023-01-09T05:58:05;37.13;;;12.30;;
63095;SDS011;49184;55.596;37.770;2023-01-09T06:00:31;30.42;;;10.75;;
63095;SDS011;49184;55.596;37.770;2023-01-09T06:02:57;28.38;;;9.95;;
63095;SDS011;49184;55.596;37.770;2023-01-09T06:05:23;32.17;;;10.60;;
63095;SDS011;49184;55.596;37.770;2023-01-09T06:07:49;31.88;;;10.23;;
63095;SDS011;49184;55.596;37.770;2023-01-09T06:10:16;25.65;;;9.30;;
63095;SDS011;49184;55.596;37.770;2023-01-09T06:12:45;23.37;;;9.80;;
63095;SDS011;49184;55.596;37.770;2023-01-09T06:15:13;25.00;;;9.35;;
63095;SDS011;49184;55.596;37.770;2023-01-09T06:17:40;17.42;;;8.35;;
63095;SDS011;49184;55.596;37.770;2023-01-09T06:20:06;29.05;;;9.32;;
63095;SDS011;49184;55.596;37.770;2023-01-09T06:22:33;37.38;;;10.85;;
63095;SDS011;49184;55.596;37.770;2023-01-09T06:24:59;25.27;;;9.05;;
63095;SDS011;49184;55.596;37.770;2023-01-09T06:27:26;27.20;;;9.48;;
63095;SDS011;49184;55.596;37.770;2023-01-09T06:29:52;28.15;;;8.48;;
63095;SDS011;49184;55.596;37.770;2023-01-09T06:32:18;30.42;;;10.05;;
63095;SDS011;49184;55.596;37.770;2023-01-09T06:34:44;22.77;;;9.00;;
63095;SDS011;49184;55.596;37.770;2023-01-09T06:37:10;26.02;;;8.85;;
63095;SDS011;49184;55.596;37.770;2023-01-09T06:39:38;25.52;;;9.10;;
63095;SDS011;49184;55.596;37.770;2023-01-09T06:42:04;20.35;;;8.23;;
63095;SDS011;49184;55.596;37.770;2023-01-09T06:44:30;29.33;;;9.48;;
63095;SDS011;49184;55.596;37.770;2023-01-09T06:46:57;25.33;;;9.48;;
63095;SDS011;49184;55.596;37.770;2023-01-09T06:49:23;19.73;;;8.15;;
63095;SDS011;49184;55.596;37.770;2023-01-09T06:51:50;25.70;;;9.43;;
63095;SDS011;49184;55.596;37.770;2023-01-09T06:54:19;19.88;;;8.18;;
63095;SDS011;49184;55.596;37.770;2023-01-09T06:56:46;29.90;;;9.63;;
63095;SDS011;49184;55.596;37.770;2023-01-09T06:59:12;22.90;;;9.27;;
63095;SDS011;49184;55.596;37.770;2023-01-09T07:01:39;24.52;;;9.05;;
63095;SDS011;49184;55.596;37.770;2023-01-09T07:04:05;21.52;;;9.15;;
63095;SDS011;49184;55.596;37.770;2023-01-09T07:06:32;23.45;;;10.02;;
63095;SDS011;49184;55.596;37.770;2023-01-09T07:08:59;21.65;;;8.23;;
63095;SDS011;49184;55.596;37.770;2023-01-09T07:11:24;29.08;;;7.75;;
63095;SDS011;49184;55.596;37.770;2023-01-09T07:13:50;23.52;;;8.73;;
63095;SDS011;49184;55.596;37.770;2023-01-09T07:16:17;30.17;;;9.05;;
63095;SDS011;49184;55.596;37.770;2023-01-09T07:18:43;32.92;;;9.05;;
63095;SDS011;49184;55.596;37.770;2023-01-09T07:21:09;22.05;;;9.10;;
63095;SDS011;49184;55.596;37.770;2023-01-09T07:23:36;23.55;;;9.55;;
63095;SDS011;49184;55.596;37.770;2023-01-09T07:26:02;26.90;;;9.05;;
63095;SDS011;49184;55.596;37.770;2023-01-09T07:28:28;34.72;;;10.40;;
63095;SDS011;49184;55.596;37.770;2023-01-09T07:30:54;29.67;;;9.45;;
63095;SDS011;49184;55.596;37.770;2023-01-09T07:33:20;25.58;;;8.32;;
63095;SDS011;49184;55.596;37.770;2023-01-09T07:35:46;20.92;;;6.90;;
63095;SDS011;49184;55.596;37.770;2023-01-09T07:38:12;16.40;;;6.63;;
63095;SDS011;49184;55.596;37.770;2023-01-09T07:40:38;17.05;;;7.05;;
63095;SDS011;49184;55.596;37.770;2023-01-09T07:43:04;18.63;;;6.97;;
63095;SDS011;49184;55.596;37.770;2023-01-09T07:45:30;23.95;;;7.43;;
63095;SDS011;49184;55.596;37.770;2023-01-09T07:47:56;18.63;;;7.25;;
63095;SDS011;49184;55.596;37.770;2023-01-09T07:50:23;16.73;;;7.13;;
63095;SDS011;49184;55.596;37.770;2023-01-09T07:52:49;16.85;;;7.18;;
63095;SDS011;49184;55.596;37.770;2023-01-09T07:55:15;18.42;;;7.57;;
63095;SDS011;49184;55.596;37.770;2023-01-09T07:57:41;22.70;;;7.43;;
63095;SDS011;49184;55.596;37.770;2023-01-09T08:00:07;17.02;;;6.28;;
63095;SDS011;49184;55.596;37.770;2023-01-09T08:02:38;20.38;;;7.00;;
63095;SDS011;49184;55.596;37.770;2023-01-09T08:05:04;12.70;;;6.22;;
63095;SDS011;49184;55.596;37.770;2023-01-09T08:07:31;19.70;;;7.18;;
63095;SDS011;49184;55.596;37.770;2023-01-09T08:09:57;21.05;;;5.90;;
63095;SDS011;49184;55.596;37.770;2023-01-09T08:12:24;14.52;;;5.95;;
63095;SDS011;49184;55.596;37.770;2023-01-09T08:14:51;16.15;;;6.75;;
63095;SDS011;49184;55.596;37.770;2023-01-09T08:17:17;15.70;;;6.60;;
63095;SDS011;49184;55.596;37.770;2023-01-09T08:19:43;31.45;;;6.93;;
63095;SDS011;49184;55.596;37.770;2023-01-09T08:22:09;16.65;;;6.22;;
63095;SDS011;49184;55.596;37.770;2023-01-09T08:24:36;15.85;;;6.10;;
63095;SDS011;49184;55.596;37.770;2023-01-09T08:27:02;20.35;;;7.45;;
63095;SDS011;49184;55.596;37.770;2023-01-09T08:29:28;16.63;;;6.55;;
63095;SDS011;49184;55.596;37.770;2023-01-09T08:31:55;15.15;;;6.05;;
63095;SDS011;49184;55.596;37.770;2023-01-09T08:34:21;14.30;;;5.77;;
63095;SDS011;49184;55.596;37.770;2023-01-09T08:36:47;11.93;;;5.47;;
63095;SDS011;49184;55.596;37.770;2023-01-09T08:39:13;23.77;;;6.50;;
63095;SDS011;49184;55.596;37.770;2023-01-09T08:41:39;15.85;;;5.90;;
63095;SDS011;49184;55.596;37.770;2023-01-09T08:44:23;16.30;;;6.63;;
63095;SDS011;49184;55.596;37.770;2023-01-09T08:47:08;12.10;;;6.47;;
63095;SDS011;49184;55.596;37.770;2023-01-09T08:49:35;15.63;;;6.80;;
63095;SDS011;49184;55.596;37.770;2023-01-09T08:52:04;23.92;;;6.85;;
63095;SDS011;49184;55.596;37.770;2023-01-09T08:54:32;16.52;;;6.15;;
63095;SDS011;49184;55.596;37.770;2023-01-09T08:57:01;16.85;;;6.72;;
63095;SDS011;49184;55.596;37.770;2023-01-09T08:59:27;18.75;;;6.55;;
63095;SDS011;49184;55.596;37.770;2023-01-09T09:01:53;19.65;;;6.85;;
63095;SDS011;49184;55.596;37.770;2023-01-09T09:06:46;18.77;;;5.70;;
63095;SDS011;49184;55.596;37.770;2023-01-09T09:09:12;14.23;;;6.00;;
63095;SDS011;49184;55.596;37.770;2023-01-09T09:11:39;15.57;;;6.27;;
63095;SDS011;49184;55.596;37.770;2023-01-09T09:14:06;10.27;;;5.50;;
63095;SDS011;49184;55.596;37.770;2023-01-09T09:16:51;19.38;;;7.28;;
63095;SDS011;49184;55.596;37.770;2023-01-09T09:19:18;17.23;;;6.40;;
63095;SDS011;49184;55.596;37.770;2023-01-09T09:21:45;19.38;;;6.97;;
63095;SDS011;49184;55.596;37.770;2023-01-09T09:24:11;12.50;;;6.10;;
63095;SDS011;49184;55.596;37.770;2023-01-09T09:26:39;14.05;;;6.43;;
63095;SDS011;49184;55.596;37.770;2023-01-09T09:29:05;15.52;;;6.10;;
63095;SDS011;49184;55.596;37.770;2023-01-09T09:31:35;20.48;;;6.22;;
63095;SDS011;49184;55.596;37.770;2023-01-09T09:34:02;13.75;;;5.75;;
63095;SDS011;49184;55.596;37.770;2023-01-09T09:36:28;14.15;;;6.18;;
63095;SDS011;49184;55.596;37.770;2023-01-09T09:38:54;10.73;;;4.28;;
63095;SDS011;49184;55.596;37.770;2023-01-09T09:41:37;22.00;;;5.90;;
63095;SDS011;49184;55.596;37.770;2023-01-09T09:53:20;13.48;;;6.00;;
63095;SDS011;49184;55.596;37.770;2023-01-09T09:55:55;13.40;;;5.75;;
63095;SDS011;49184;55.596;37.770;2023-01-09T10:01:05;17.88;;;5.85;;
63095;SDS011;49184;55.596;37.770;2023-01-09T10:03:36;10.85;;;4.80;;
63095;SDS011;49184;55.596;37.770;2023-01-09T10:06:07;12.65;;;5.95;;
63095;SDS011;49184;55.596;37.770;2023-01-09T10:14:22;12.63;;;5.80;;
63095;SDS011;49184;55.596;37.770;2023-01-09T10:25:18;14.70;;;6.40;;
63095;SDS011;49184;55.596;37.770;2023-01-09T10:30:49;16.08;;;7.07;;
63095;SDS011;49184;55.596;37.770;2023-01-09T10:33:49;21.23;;;5.93;;
63095;SDS011;49184;55.596;37.770;2023-01-09T10:36:32;14.25;;;6.55;;
63095;SDS011;49184;55.596;37.770;2023-01-09T10:39:09;15.85;;;6.35;;
63095;SDS011;49184;55.596;37.770;2023-01-09T10:44:38;17.67;;;6.25;;
63095;SDS011;49184;55.596;37.770;2023-01-09T10:47:45;17.23;;;6.40;;
63095;SDS011;49184;55.596;37.770;2023-01-09T10:52:55;16.50;;;6.55;;
63095;SDS011;49184;55.596;37.770;2023-01-09T10:55:25;14.82;;;5.68;;
63095;SDS011;49184;55.596;37.770;2023-01-09T10:58:16;14.57;;;5.70;;
63095;SDS011;49184;55.596;37.770;2023-01-09T11:00:45;8.98;;;5.38;;
63095;SDS011;49184;55.596;37.770;2023-01-09T11:03:17;14.75;;;6.45;;
63095;SDS011;49184;55.596;37.770;2023-01-09T11:05:50;19.25;;;6.35;;
63095;SDS011;49184;55.596;37.770;2023-01-09T11:11:04;15.18;;;5.30;;
63095;SDS011;49184;55.596;37.770;2023-01-09T11:13:31;17.13;;;7.35;;
63095;SDS011;49184;55.596;37.770;2023-01-09T11:16:20;19.83;;;7.47;;
63095;SDS011;49184;55.596;37.770;2023-01-09T11:18:58;20.67;;;7.45;;
63095;SDS011;49184;55.596;37.770;2023-01-09T11:21:32;17.48;;;6.82;;
63095;SDS011;49184;55.596;37.770;2023-01-09T11:29:19;13.45;;;5.45;;
63095;SDS011;49184;55.596;37.770;2023-01-09T11:31:54;20.33;;;7.80;;
63095;SDS011;49184;55.596;37.770;2023-01-09T11:34:23;14.98;;;6.68;;
63095;SDS011;49184;55.596;37.770;2023-01-09T11:36:53;17.65;;;6.63;;
63095;SDS011;49184;55.596;37.770;2023-01-09T11:39:29;10.00;;;4.28;;
63095;SDS011;49184;55.596;37.770;2023-01-09T11:41:58;13.75;;;5.43;;
63095;SDS011;49184;55.596;37.770;2023-01-09T11:44:29;25.25;;;7.35;;
63095;SDS011;49184;55.596;37.770;2023-01-09T11:46:58;8.25;;;4.07;;
63095;SDS011;49184;55.596;37.770;2023-01-09T11:49:28;19.30;;;7.30;;
63095;SDS011;49184;55.596;37.770;2023-01-09T11:52:14;14.65;;;5.45;;
63095;SDS011;49184;55.596;37.770;2023-01-09T11:54:48;12.20;;;5.40;;
63095;SDS011;49184;55.596;37.770;2023-01-09T11:57:22;14.60;;;5.68;;
63095;SDS011;49184;55.596;37.770;2023-01-09T11:59:49;16.33;;;6.85;;
63095;SDS011;49184;55.596;37.770;2023-01-09T12:05:23;15.90;;;6.35;;
63095;SDS011;49184;55.596;37.770;2023-01-09T12:11:23;14.65;;;6.50;;
63095;SDS011;49184;55.596;37.770;2023-01-09T12:17:21;19.20;;;5.60;;
63095;SDS011;49184;55.596;37.770;2023-01-09T12:22:42;13.30;;;4.78;;
63095;SDS011;49184;55.596;37.770;2023-01-09T12:28:19;14.70;;;5.45;;
63095;SDS011;49184;55.596;37.770;2023-01-09T12:36:54;20.92;;;5.80;;
63095;SDS011;49184;55.596;37.770;2023-01-09T12:45:33;15.48;;;5.95;;
63095;SDS011;49184;55.596;37.770;2023-01-09T12:53:30;14.43;;;5.13;;
63095;SDS011;49184;55.596;37.770;2023-01-09T12:56:15;16.13;;;5.50;;
63095;SDS011;49184;55.596;37.770;2023-01-09T12:59:06;16.00;;;5.43;;
63095;SDS011;49184;55.596;37.770;2023-01-09T13:02:01;10.68;;;5.25;;
63095;SDS011;49184;55.596;37.770;2023-01-09T13:04:41;15.25;;;5.53;;
63095;SDS011;49184;55.596;37.770;2023-01-09T13:07:22;9.02;;;5.05;;
63095;SDS011;49184;55.596;37.770;2023-01-09T13:12:45;12.63;;;5.38;;
63095;SDS011;49184;55.596;37.770;2023-01-09T13:18:15;16.58;;;4.90;;
63095;SDS011;49184;55.596;37.770;2023-01-09T13:20:51;16.63;;;6.88;;
63095;SDS011;49184;55.596;37.770;2023-01-09T13:23:45;6.32;;;3.58;;
63095;SDS011;49184;55.596;37.770;2023-01-09T13:26:15;14.82;;;6.05;;
63095;SDS011;49184;55.596;37.770;2023-01-09T13:28:46;20.80;;;5.75;;
63095;SDS011;49184;55.596;37.770;2023-01-09T13:34:17;12.20;;;5.13;;
63095;SDS011;49184;55.596;37.770;2023-01-09T13:36:48;18.67;;;5.57;;
63095;SDS011;49184;55.596;37.770;2023-01-09T13:39:21;9.65;;;4.75;;
63095;SDS011;49184;55.596;37.770;2023-01-09T13:41:50;10.98;;;5.30;;
63095;SDS011;49184;55.596;37.770;2023-01-09T13:47:22;31.75;;;5.22;;
63095;SDS011;49184;55.596;37.770;2023-01-09T13:49:57;14.30;;;6.13;;
63095;SDS011;49184;55.596;37.770;2023-01-09T13:52:49;14.95;;;6.10;;
63095;SDS011;49184;55.596;37.770;2023-01-09T14:08:18;16.05;;;7.13;;
63095;SDS011;49184;55.596;37.770;2023-01-09T14:10:57;17.90;;;7.10;;
63095;SDS011;49184;55.596;37.770;2023-01-09T14:16:06;17.70;;;6.35;;
63095;SDS011;49184;55.596;37.770;2023-01-09T14:19:00;12.13;;;5.18;;
63095;SDS011;49184;55.596;37.770;2023-01-09T14:21:54;11.07;;;4.72;;
63095;SDS011;49184;55.596;37.770;2023-01-09T14:24:25;15.43;;;6.23;;
63095;SDS011;49184;55.596;37.770;2023-01-09T14:27:00;12.93;;;5.82;;
63095;SDS011;49184;55.596;37.770;2023-01-09T14:37:24;10.20;;;5.55;;
63095;SDS011;49184;55.596;37.770;2023-01-09T14:39:53;12.77;;;4.97;;
63095;SDS011;49184;55.596;37.770;2023-01-09T14:42:23;14.45;;;6.05;;
63095;SDS011;49184;55.596;37.770;2023-01-09T14:45:15;14.80;;;6.03;;
63095;SDS011;49184;55.596;37.770;2023-01-09T14:47:56;17.58;;;5.20;;
63095;SDS011;49184;55.596;37.770;2023-01-09T14:50:36;16.77;;;5.85;;
63095;SDS011;49184;55.596;37.770;2023-01-09T14:53:10;18.63;;;7.72;;
63095;SDS011;49184;55.596;37.770;2023-01-09T14:58:23;20.73;;;7.28;;
63095;SDS011;49184;55.596;37.770;2023-01-09T15:03:41;16.00;;;5.50;;
63095;SDS011;49184;55.596;37.770;2023-01-09T15:06:14;16.52;;;5.43;;
63095;SDS011;49184;55.596;37.770;2023-01-09T15:08:44;11.27;;;5.43;;
63095;SDS011;49184;55.596;37.770;2023-01-09T15:11:15;10.38;;;4.60;;
63095;SDS011;49184;55.596;37.770;2023-01-09T15:13:45;13.27;;;5.45;;
63095;SDS011;49184;55.596;37.770;2023-01-09T15:16:18;12.88;;;5.88;;
63095;SDS011;49184;55.596;37.770;2023-01-09T15:18:50;14.90;;;6.45;;
63095;SDS011;49184;55.596;37.770;2023-01-09T15:21:23;14.57;;;5.50;;
63095;SDS011;49184;55.596;37.770;2023-01-09T15:23:52;10.27;;;4.47;;
63095;SDS011;49184;55.596;37.770;2023-01-09T15:26:22;10.70;;;4.97;;
